Detall de PIREP

Printer-friendly versionPDF version

[2012/09/11 13:40:00]
Flight IATA:CT1005
Pilot Number:037
Company ICAO:CAT
Aircraft Type:B752/E
PAX:139
Aircraft Registration:PAX
Departing Airport: LKPR
Destination Airport: EYVI
Alternate Airport:EYSA
Online: VATSIM
Route:ARTUP UP733 TOMTI P733 EBOGU N858 IRKAL

Flight Level:F370
No Slew and time accel
No pause
Crash detect
Detect pilot in Cockpit between each 30 and 45 minutes
13:40 Zero fuel Weight: 164300 Lbs, Fuel Weight: 22993 Lbs
13:40 VATSIM:LKPR 111330Z 24008KT 200V270 CAVOK 27/14 Q1013 NOSIG
13:40 VATSIM:EYVI 111320Z 19009KT 160V220 CAVOK 23/15 Q1014 NOSIG
13:52 Take-off
13:52 Take off Weight: 186597 Lbs
13:52 Wind: 251º @ 008 Knots Heading: 244º
13:52 POS N50º 06´ 34´´ E014º 15´ 09´´
13:52 Gear Up: 186 Knots
13:52 Flaps:2 at 186 Knots
13:52 Flaps:1 at 199 Knots
13:52 Flaps:0 at 210 Knots
14:07 Wind:171º@025 Knots Heading: 039º Ground Speed: 490 Knots Altitude 35823 ft
14:08 TOC
14:08 Fuel Weight: 18331 Lb
14:22 Wind:201º@035 Knots Heading: 035º Ground Speed: 510 Knots Altitude 36906 ft
14:37 Wind:204º@032 Knots Heading: 075º Ground Speed: 494 Knots Altitude 36916 ft
14:44 TOD
14:44 Fuel Weight: 14030 Lb
14:52 Wind:183º@020 Knots Heading: 078º Ground Speed: 379 Knots Altitude 15285 ft
15:03 Flaps:1 at 209 Knots
15:05 Flaps:2 at 191 Knots
15:06 Flaps:3 at 178 Knots
15:07 Wind:179º@012 Knots Heading: 196º Ground Speed: 173 Knots Altitude 3982 ft
15:10 Gear Down: 184 Knots
15:10 Flaps:4 at 184 Knots
15:10 Flaps:5 at 162 Knots
15:10 TouchDown:Rate -263 ft/min Speed: 144 Knots
15:11 VATSIM:EYVI 111450Z 18007KT CAVOK 23/16 Q1014 NOSIG
15:11 Land
15:11 Wind:175º@007 Knots
15:11 Heading: 197º
15:11 Flight Duration: 01:19
15:11 Landing Weight: 176299 Lbs
15:11 POS N54º 35´ 50´´ E025º 15´ 35´´
15:11 Parkingbrakes on
15:11 Block to Block Duration: 01:20
15:11 Final Fuel: 11937 Lbls
15:11 Spent Fuel: 11056 Lbls
15:11 Flight Length: 549 NM
15:11 TOD Land Length: 135 NM

Exportar CSV

Powered by Drupal - Modified by Danger4k